createdAt,value
2022-08-27T13:56:06.917Z,4.60
2022-08-27T13:59:59.088Z,4.20
2022-08-27T14:30:29.527Z,4.22
2022-08-27T14:40:07.015Z,4.55
2022-08-27T14:43:26.043Z,5.18
2022-08-27T14:49:50.063Z,5.40
2022-08-27T14:55:46.825Z,5.43
2022-08-27T14:58:30.252Z,5.35
2022-08-27T15:05:12.066Z,5.88
2022-08-27T15:15:33.679Z,5.65
2022-08-27T15:18:27.098Z,6.18
2022-08-27T15:32:12.159Z,5.82
2022-08-27T15:35:29.238Z,5.10
2022-08-27T15:37:58.459Z,5.47
2022-08-27T15:40:28.544Z,5.80
2022-08-27T15:43:04.435Z,5.82
2022-08-27T15:45:32.776Z,5.57
2022-08-27T15:48:01.530Z,5.50
2022-08-27T15:50:30.487Z,5.45
2022-08-27T15:53:01.822Z,4.88
2022-08-27T15:55:32.265Z,4.63
2022-08-27T15:58:00.161Z,5.18
2022-08-27T16:00:28.767Z,4.70
2022-08-27T16:02:57.379Z,4.75
2022-08-27T16:05:25.845Z,4.88
2022-08-27T16:07:52.914Z,4.75
2022-08-27T16:10:20.133Z,4.90
2022-08-27T16:12:47.376Z,5.00
2022-08-27T16:15:15.084Z,4.90
2022-08-27T16:17:42.743Z,4.90
2022-08-27T16:20:12.284Z,5.03
2022-08-27T16:22:39.546Z,4.85
2022-08-27T16:25:07.847Z,5.68
2022-08-27T16:27:36.112Z,5.10
2022-08-27T16:30:04.034Z,5.18
2022-08-27T16:32:31.867Z,5.13
2022-08-27T16:34:59.445Z,5.20
2022-08-27T16:37:27.019Z,5.25
2022-08-27T16:39:54.138Z,5.07
2022-08-27T16:42:21.877Z,5.25
2022-08-27T16:44:49.357Z,5.00
2022-08-27T16:47:16.702Z,4.75
2022-08-27T16:50:02.493Z,5.00
2022-08-27T16:52:30.249Z,5.70
2022-08-27T16:54:57.330Z,5.05
2022-08-27T16:57:24.583Z,5.40
2022-08-27T16:59:51.758Z,5.10
2022-08-27T17:02:30.075Z,5.50
2022-08-27T17:05:17.334Z,5.43
2022-08-27T17:07:48.886Z,5.20
2022-08-27T17:10:19.677Z,5.60
2022-08-27T17:12:48.147Z,5.40
2022-08-27T17:15:16.814Z,5.75
2022-08-27T17:17:44.587Z,6.15
2022-08-27T17:20:12.086Z,5.88
2022-08-27T17:22:39.271Z,6.65
2022-08-27T17:25:07.303Z,7.03
2022-08-27T17:27:34.877Z,7.15
2022-08-27T17:30:02.191Z,6.32
2022-08-27T17:32:32.634Z,6.65
2022-08-27T17:35:05.153Z,5.88
2022-08-27T17:40:02.496Z,6.55
2022-08-27T17:42:31.267Z,6.22
2022-08-27T17:45:00.242Z,6.82
2022-08-27T17:47:27.986Z,5.93
2022-08-27T17:50:06.168Z,6.15
2022-08-27T17:52:34.343Z,6.30
2022-08-27T17:55:01.505Z,6.45
2022-08-27T17:57:54.810Z,6.07
2022-08-27T18:00:22.030Z,7.43
2022-08-27T18:02:51.253Z,6.65
2022-08-27T18:05:35.031Z,7.60
2022-08-27T18:08:04.123Z,6.60
2022-08-27T18:10:37.777Z,6.40
2022-08-27T18:13:05.680Z,6.25
2022-08-27T18:16:12.210Z,6.53
2022-08-27T18:18:41.194Z,7.85
2022-08-27T18:21:08.536Z,8.13
2022-08-27T18:23:37.518Z,9.20
2022-08-27T18:26:06.791Z,9.07
2022-08-27T18:28:34.788Z,9.00
2022-08-27T18:31:06.712Z,8.50
2022-08-27T18:33:38.365Z,8.35
2022-08-27T18:36:09.030Z,9.02
2022-08-27T18:39:26.486Z,8.50
2022-08-27T18:42:07.906Z,8.07
2022-08-27T18:47:46.172Z,8.15
2022-08-27T18:51:01.838Z,8.40
2022-08-27T18:53:34.784Z,7.50
2022-08-27T18:59:05.532Z,9.07
2022-08-27T19:01:54.203Z,8.60
2022-08-27T19:04:29.216Z,7.95
2022-08-27T19:07:24.219Z,9.30
2022-08-27T19:12:53.599Z,8.90
2022-08-27T19:15:34.855Z,8.68
2022-08-27T19:18:10.768Z,8.55
2022-08-27T19:20:43.701Z,9.65
2022-08-27T19:23:15.854Z,9.60
2022-08-27T19:25:54.306Z,9.80
2022-08-27T19:28:42.429Z,9.35
2022-08-27T19:31:41.585Z,9.85
2022-08-27T19:34:22.659Z,9.48
2022-08-27T19:37:00.777Z,10.07
2022-08-27T19:40:04.003Z,9.93
2022-08-27T19:42:32.597Z,10.80
2022-08-27T19:45:02.471Z,9.80
2022-08-27T19:47:54.298Z,12.13
2022-08-27T19:50:32.089Z,11.48
2022-08-27T19:53:41.449Z,11.00
2022-08-27T19:56:32.549Z,11.00
2022-08-27T19:59:16.188Z,10.88
2022-08-27T20:01:57.204Z,10.75
2022-08-27T20:04:47.606Z,10.80
2022-08-27T20:07:33.153Z,10.73
2022-08-27T20:10:09.394Z,11.52
2022-08-27T20:12:41.532Z,12.40
2022-08-27T20:15:15.945Z,12.73
2022-08-27T20:17:51.812Z,13.02
2022-08-27T20:20:28.717Z,12.70
2022-08-27T20:23:08.596Z,13.95
2022-08-27T20:25:47.287Z,14.18
2022-08-27T20:31:21.933Z,14.23
2022-08-27T20:33:57.522Z,13.00
2022-08-27T20:36:48.745Z,13.30
2022-08-27T20:40:11.453Z,12.73
2022-08-27T20:42:49.750Z,14.15
2022-08-27T20:45:17.985Z,13.35
2022-08-27T20:47:48.355Z,14.13
2022-08-27T20:50:19.960Z,13.90
2022-08-27T20:52:50.138Z,13.07
2022-08-27T20:55:20.934Z,13.75
2022-08-27T20:58:19.933Z,15.02
2022-08-27T21:00:53.913Z,14.48
2022-08-27T21:03:31.829Z,16.13
2022-08-27T21:06:06.865Z,18.58
2022-08-27T21:11:48.441Z,18.98
2022-08-27T21:14:32.282Z,19.63
2022-08-27T21:19:43.435Z,19.05
2022-08-27T21:22:14.161Z,21.20
2022-08-27T21:25:27.277Z,21.17
2022-08-27T21:28:08.638Z,20.58
2022-08-27T21:33:53.324Z,19.17
2022-08-27T21:36:25.116Z,20.40
2022-08-27T21:39:17.516Z,21.13
2022-08-27T21:41:49.804Z,20.92
2022-08-27T21:44:50.006Z,20.88
2022-08-27T21:47:21.890Z,20.88
2022-08-27T21:50:10.164Z,21.95
2022-08-27T21:52:44.392Z,21.77
2022-08-27T21:58:13.633Z,22.67
2022-08-27T22:01:05.152Z,23.60
2022-08-27T22:03:42.206Z,25.63
2022-08-27T22:06:26.317Z,25.35
2022-08-27T22:09:00.962Z,24.67
2022-08-27T22:11:38.750Z,27.48
2022-08-27T22:14:11.891Z,25.25
2022-08-27T22:17:04.773Z,25.35
2022-08-27T22:20:00.422Z,32.83
2022-08-27T22:22:30.857Z,34.17
2022-08-27T22:25:05.768Z,31.13
2022-08-27T22:31:33.923Z,28.50
2022-08-27T22:42:48.271Z,35.70
2022-08-27T22:45:30.048Z,36.53
2022-08-27T22:48:23.276Z,34.33
2022-08-27T22:50:56.173Z,35.33
2022-08-27T22:56:37.319Z,37.47
2022-08-27T22:59:15.546Z,33.67
2022-08-27T23:01:59.841Z,37.33
2022-08-27T23:05:01.509Z,37.08
2022-08-27T23:11:02.344Z,35.80
2022-08-27T23:13:32.697Z,36.95
2022-08-27T23:16:17.173Z,37.47
2022-08-27T23:18:48.420Z,35.90
2022-08-27T23:21:20.235Z,34.58
2022-08-27T23:24:12.856Z,33.90
2022-08-27T23:27:40.988Z,33.75
2022-08-27T23:30:14.799Z,32.78
2022-08-27T23:32:57.202Z,32.80
2022-08-27T23:35:32.013Z,33.63
2022-08-27T23:38:06.496Z,31.45
2022-08-27T23:41:03.467Z,29.58
2022-08-27T23:43:48.284Z,27.63
2022-08-27T23:46:25.105Z,32.90
2022-08-27T23:48:56.500Z,29.00
2022-08-27T23:54:25.419Z,27.52
2022-08-27T23:57:21.860Z,26.08
